sensor_id;sensor_type;location;lat;lon;timestamp;P1;durP1;ratioP1;P2;durP2;ratioP2
19946;SDS011;10135;50.702;7.276;2023-08-01T05:02:13;1.80;;;1.70;;
19946;SDS011;10135;50.702;7.276;2023-08-01T05:04:14;1.73;;;1.63;;
19946;SDS011;10135;50.702;7.276;2023-08-01T05:06:14;1.90;;;1.80;;
19946;SDS011;10135;50.702;7.276;2023-08-01T05:08:15;3.90;;;1.67;;
19946;SDS011;10135;50.702;7.276;2023-08-01T05:10:16;1.97;;;1.70;;
19946;SDS011;10135;50.702;7.276;2023-08-01T05:12:16;2.03;;;1.90;;
19946;SDS011;10135;50.702;7.276;2023-08-01T05:14:17;1.70;;;1.58;;
19946;SDS011;10135;50.702;7.276;2023-08-01T05:16:18;1.73;;;1.63;;
19946;SDS011;10135;50.702;7.276;2023-08-01T05:18:18;2.35;;;1.63;;
19946;SDS011;10135;50.702;7.276;2023-08-01T05:20:19;1.60;;;1.50;;
19946;SDS011;10135;50.702;7.276;2023-08-01T05:22:20;2.95;;;2.03;;
19946;SDS011;10135;50.702;7.276;2023-08-01T05:24:20;2.10;;;2.00;;
19946;SDS011;10135;50.702;7.276;2023-08-01T05:26:21;2.10;;;1.88;;
19946;SDS011;10135;50.702;7.276;2023-08-01T05:28:22;1.70;;;1.60;;
19946;SDS011;10135;50.702;7.276;2023-08-01T05:30:23;1.83;;;1.73;;
19946;SDS011;10135;50.702;7.276;2023-08-01T05:32:25;2.20;;;2.10;;
19946;SDS011;10135;50.702;7.276;2023-08-01T05:34:25;2.17;;;1.97;;
19946;SDS011;10135;50.702;7.276;2023-08-01T05:36:26;2.50;;;2.30;;
19946;SDS011;10135;50.702;7.276;2023-08-01T05:38:26;2.88;;;2.15;;
19946;SDS011;10135;50.702;7.276;2023-08-01T05:40:27;4.70;;;2.00;;
19946;SDS011;10135;50.702;7.276;2023-08-01T05:42:28;2.63;;;2.33;;
19946;SDS011;10135;50.702;7.276;2023-08-01T05:44:28;3.13;;;2.13;;
19946;SDS011;10135;50.702;7.276;2023-08-01T05:46:29;3.47;;;2.50;;
19946;SDS011;10135;50.702;7.276;2023-08-01T05:48:30;2.40;;;2.20;;
19946;SDS011;10135;50.702;7.276;2023-08-01T05:50:30;2.43;;;2.13;;
19946;SDS011;10135;50.702;7.276;2023-08-01T05:52:31;2.20;;;2.10;;
19946;SDS011;10135;50.702;7.276;2023-08-01T05:54:33;2.40;;;2.20;;
19946;SDS011;10135;50.702;7.276;2023-08-01T05:56:33;2.10;;;1.90;;
19946;SDS011;10135;50.702;7.276;2023-08-01T05:58:34;2.23;;;2.00;;
19946;SDS011;10135;50.702;7.276;2023-08-01T06:00:35;1.90;;;1.80;;
19946;SDS011;10135;50.702;7.276;2023-08-01T06:02:36;2.30;;;2.00;;
19946;SDS011;10135;50.702;7.276;2023-08-01T06:04:37;2.20;;;2.10;;
19946;SDS011;10135;50.702;7.276;2023-08-01T06:06:38;2.25;;;2.05;;
19946;SDS011;10135;50.702;7.276;2023-08-01T06:08:39;2.35;;;1.95;;
19946;SDS011;10135;50.702;7.276;2023-08-01T06:10:40;2.40;;;2.30;;
19946;SDS011;10135;50.702;7.276;2023-08-01T06:12:40;2.37;;;2.00;;
19946;SDS011;10135;50.702;7.276;2023-08-01T06:14:41;2.35;;;2.00;;
19946;SDS011;10135;50.702;7.276;2023-08-01T06:16:42;2.20;;;2.08;;
19946;SDS011;10135;50.702;7.276;2023-08-01T06:18:43;1.90;;;1.80;;
19946;SDS011;10135;50.702;7.276;2023-08-01T06:20:43;2.00;;;1.90;;
19946;SDS011;10135;50.702;7.276;2023-08-01T06:22:44;1.90;;;1.80;;
19946;SDS011;10135;50.702;7.276;2023-08-01T06:24:44;2.20;;;1.73;;
19946;SDS011;10135;50.702;7.276;2023-08-01T06:26:45;2.20;;;2.10;;
19946;SDS011;10135;50.702;7.276;2023-08-01T06:28:46;2.45;;;1.98;;
19946;SDS011;10135;50.702;7.276;2023-08-01T06:30:46;2.05;;;1.95;;
19946;SDS011;10135;50.702;7.276;2023-08-01T06:32:47;2.63;;;2.28;;
19946;SDS011;10135;50.702;7.276;2023-08-01T06:34:48;3.92;;;1.98;;
19946;SDS011;10135;50.702;7.276;2023-08-01T06:36:48;2.17;;;1.98;;
19946;SDS011;10135;50.702;7.276;2023-08-01T06:38:49;3.40;;;2.20;;
19946;SDS011;10135;50.702;7.276;2023-08-01T06:40:50;2.97;;;1.90;;
19946;SDS011;10135;50.702;7.276;2023-08-01T06:42:50;2.00;;;1.88;;
19946;SDS011;10135;50.702;7.276;2023-08-01T06:44:51;1.90;;;1.80;;
19946;SDS011;10135;50.702;7.276;2023-08-01T06:46:52;4.45;;;2.05;;
19946;SDS011;10135;50.702;7.276;2023-08-01T06:48:52;2.40;;;2.22;;
19946;SDS011;10135;50.702;7.276;2023-08-01T06:50:53;1.90;;;1.80;;
19946;SDS011;10135;50.702;7.276;2023-08-01T06:52:54;3.60;;;1.77;;
19946;SDS011;10135;50.702;7.276;2023-08-01T06:54:54;1.98;;;1.88;;
19946;SDS011;10135;50.702;7.276;2023-08-01T06:56:55;2.20;;;2.10;;
19946;SDS011;10135;50.702;7.276;2023-08-01T06:58:55;2.28;;;2.08;;
19946;SDS011;10135;50.702;7.276;2023-08-01T07:00:56;2.13;;;1.90;;
19946;SDS011;10135;50.702;7.276;2023-08-01T07:02:57;2.10;;;1.92;;
19946;SDS011;10135;50.702;7.276;2023-08-01T07:04:58;2.95;;;2.28;;
19946;SDS011;10135;50.702;7.276;2023-08-01T07:06:59;2.22;;;2.03;;
19946;SDS011;10135;50.702;7.276;2023-08-01T07:08:59;2.30;;;2.00;;
19946;SDS011;10135;50.702;7.276;2023-08-01T07:11:00;3.55;;;2.28;;
19946;SDS011;10135;50.702;7.276;2023-08-01T07:13:01;1.95;;;1.80;;
19946;SDS011;10135;50.702;7.276;2023-08-01T07:15:04;2.45;;;2.25;;
19946;SDS011;10135;50.702;7.276;2023-08-01T07:17:05;2.63;;;1.95;;
19946;SDS011;10135;50.702;7.276;2023-08-01T07:19:06;2.45;;;1.90;;
19946;SDS011;10135;50.702;7.276;2023-08-01T07:21:07;2.58;;;2.33;;
19946;SDS011;10135;50.702;7.276;2023-08-01T07:23:07;3.38;;;2.05;;
19946;SDS011;10135;50.702;7.276;2023-08-01T07:25:08;2.50;;;2.40;;
19946;SDS011;10135;50.702;7.276;2023-08-01T07:27:09;2.53;;;2.33;;
19946;SDS011;10135;50.702;7.276;2023-08-01T07:29:10;3.90;;;2.33;;
19946;SDS011;10135;50.702;7.276;2023-08-01T07:31:11;2.25;;;2.08;;
19946;SDS011;10135;50.702;7.276;2023-08-01T07:33:12;2.65;;;2.30;;
19946;SDS011;10135;50.702;7.276;2023-08-01T07:35:12;3.28;;;2.15;;
19946;SDS011;10135;50.702;7.276;2023-08-01T07:37:13;3.97;;;2.17;;
19946;SDS011;10135;50.702;7.276;2023-08-01T07:39:14;2.85;;;2.42;;
19946;SDS011;10135;50.702;7.276;2023-08-01T07:41:16;2.65;;;2.10;;
19946;SDS011;10135;50.702;7.276;2023-08-01T07:43:16;2.60;;;2.38;;
19946;SDS011;10135;50.702;7.276;2023-08-01T07:45:17;3.30;;;2.25;;
19946;SDS011;10135;50.702;7.276;2023-08-01T07:47:19;4.50;;;2.35;;
19946;SDS011;10135;50.702;7.276;2023-08-01T07:49:20;2.97;;;2.35;;
19946;SDS011;10135;50.702;7.276;2023-08-01T07:51:20;3.63;;;2.70;;
19946;SDS011;10135;50.702;7.276;2023-08-01T07:53:21;2.65;;;2.45;;
19946;SDS011;10135;50.702;7.276;2023-08-01T07:55:21;2.50;;;2.30;;
19946;SDS011;10135;50.702;7.276;2023-08-01T07:57:22;2.28;;;2.17;;
19946;SDS011;10135;50.702;7.276;2023-08-01T07:59:23;4.63;;;1.98;;
19946;SDS011;10135;50.702;7.276;2023-08-01T08:01:23;2.78;;;2.55;;
19946;SDS011;10135;50.702;7.276;2023-08-01T08:03:24;2.25;;;2.15;;
19946;SDS011;10135;50.702;7.276;2023-08-01T08:05:25;2.40;;;2.22;;
19946;SDS011;10135;50.702;7.276;2023-08-01T08:07:25;2.40;;;2.30;;
19946;SDS011;10135;50.702;7.276;2023-08-01T08:09:26;2.50;;;2.30;;
19946;SDS011;10135;50.702;7.276;2023-08-01T08:11:27;2.50;;;2.30;;
19946;SDS011;10135;50.702;7.276;2023-08-01T08:13:27;3.00;;;2.80;;
19946;SDS011;10135;50.702;7.276;2023-08-01T08:15:29;2.72;;;2.53;;
19946;SDS011;10135;50.702;7.276;2023-08-01T08:17:33;3.08;;;2.40;;
19946;SDS011;10135;50.702;7.276;2023-08-01T08:19:34;2.72;;;2.53;;
19946;SDS011;10135;50.702;7.276;2023-08-01T08:21:34;2.25;;;2.15;;
19946;SDS011;10135;50.702;7.276;2023-08-01T08:23:35;2.90;;;2.45;;
19946;SDS011;10135;50.702;7.276;2023-08-01T08:25:36;2.65;;;2.20;;
19946;SDS011;10135;50.702;7.276;2023-08-01T08:27:37;2.38;;;2.13;;
19946;SDS011;10135;50.702;7.276;2023-08-01T08:29:37;2.58;;;2.38;;
19946;SDS011;10135;50.702;7.276;2023-08-01T08:31:38;3.03;;;2.40;;
19946;SDS011;10135;50.702;7.276;2023-08-01T08:33:38;2.67;;;2.47;;
19946;SDS011;10135;50.702;7.276;2023-08-01T08:35:39;2.30;;;2.10;;
19946;SDS011;10135;50.702;7.276;2023-08-01T08:37:40;2.55;;;2.42;;
19946;SDS011;10135;50.702;7.276;2023-08-01T08:39:40;2.60;;;2.40;;
19946;SDS011;10135;50.702;7.276;2023-08-01T08:41:48;2.40;;;2.20;;
19946;SDS011;10135;50.702;7.276;2023-08-01T08:43:51;2.67;;;2.40;;
19946;SDS011;10135;50.702;7.276;2023-08-01T08:45:57;3.33;;;2.30;;
19946;SDS011;10135;50.702;7.276;2023-08-01T08:48:08;3.83;;;2.80;;
19946;SDS011;10135;50.702;7.276;2023-08-01T08:50:17;2.92;;;2.67;;
19946;SDS011;10135;50.702;7.276;2023-08-01T08:52:19;2.85;;;2.60;;
19946;SDS011;10135;50.702;7.276;2023-08-01T08:54:20;3.92;;;2.70;;
19946;SDS011;10135;50.702;7.276;2023-08-01T08:56:21;2.90;;;2.70;;
19946;SDS011;10135;50.702;7.276;2023-08-01T08:58:23;4.15;;;2.85;;
19946;SDS011;10135;50.702;7.276;2023-08-01T09:00:24;3.63;;;2.67;;
19946;SDS011;10135;50.702;7.276;2023-08-01T09:02:27;3.67;;;2.70;;
19946;SDS011;10135;50.702;7.276;2023-08-01T09:04:28;4.82;;;2.90;;
19946;SDS011;10135;50.702;7.276;2023-08-01T09:06:46;4.18;;;2.92;;
19946;SDS011;10135;50.702;7.276;2023-08-01T09:08:51;4.20;;;2.83;;
19946;SDS011;10135;50.702;7.276;2023-08-01T09:11:08;4.95;;;2.90;;
19946;SDS011;10135;50.702;7.276;2023-08-01T09:13:09;3.47;;;3.17;;
19946;SDS011;10135;50.702;7.276;2023-08-01T09:15:10;3.17;;;2.85;;
19946;SDS011;10135;50.702;7.276;2023-08-01T09:17:12;3.30;;;3.10;;
19946;SDS011;10135;50.702;7.276;2023-08-01T09:19:19;2.75;;;2.53;;
19946;SDS011;10135;50.702;7.276;2023-08-01T09:21:23;3.65;;;3.00;;
19946;SDS011;10135;50.702;7.276;2023-08-01T09:23:24;4.72;;;3.22;;
19946;SDS011;10135;50.702;7.276;2023-08-01T09:25:30;4.22;;;2.67;;
19946;SDS011;10135;50.702;7.276;2023-08-01T09:27:35;3.88;;;2.72;;
19946;SDS011;10135;50.702;7.276;2023-08-01T09:29:35;3.28;;;2.83;;
19946;SDS011;10135;50.702;7.276;2023-08-01T09:31:39;2.72;;;2.53;;
19946;SDS011;10135;50.702;7.276;2023-08-01T09:33:41;3.28;;;2.85;;
19946;SDS011;10135;50.702;7.276;2023-08-01T09:35:42;2.88;;;2.55;;
19946;SDS011;10135;50.702;7.276;2023-08-01T09:37:46;3.95;;;2.25;;
19946;SDS011;10135;50.702;7.276;2023-08-01T09:39:52;3.38;;;2.75;;
19946;SDS011;10135;50.702;7.276;2023-08-01T09:41:59;2.80;;;2.60;;
19946;SDS011;10135;50.702;7.276;2023-08-01T09:44:01;2.63;;;2.30;;
19946;SDS011;10135;50.702;7.276;2023-08-01T09:46:02;3.05;;;2.45;;
19946;SDS011;10135;50.702;7.276;2023-08-01T09:48:06;5.50;;;2.55;;
19946;SDS011;10135;50.702;7.276;2023-08-01T09:50:09;2.60;;;2.40;;
19946;SDS011;10135;50.702;7.276;2023-08-01T09:52:11;2.90;;;2.20;;
19946;SDS011;10135;50.702;7.276;2023-08-01T09:54:11;2.40;;;2.20;;
19946;SDS011;10135;50.702;7.276;2023-08-01T09:56:12;5.43;;;2.55;;
19946;SDS011;10135;50.702;7.276;2023-08-01T09:58:16;2.38;;;1.98;;
19946;SDS011;10135;50.702;7.276;2023-08-01T10:00:22;2.30;;;2.10;;
19946;SDS011;10135;50.702;7.276;2023-08-01T10:02:24;4.18;;;2.40;;
19946;SDS011;10135;50.702;7.276;2023-08-01T10:04:30;3.25;;;2.15;;
19946;SDS011;10135;50.702;7.276;2023-08-01T10:06:34;2.20;;;2.10;;
19946;SDS011;10135;50.702;7.276;2023-08-01T10:08:38;2.05;;;1.85;;
19946;SDS011;10135;50.702;7.276;2023-08-01T10:10:40;2.28;;;2.10;;
19946;SDS011;10135;50.702;7.276;2023-08-01T10:12:43;1.90;;;1.80;;
19946;SDS011;10135;50.702;7.276;2023-08-01T10:14:48;1.95;;;1.80;;
19946;SDS011;10135;50.702;7.276;2023-08-01T10:16:49;2.38;;;2.15;;
19946;SDS011;10135;50.702;7.276;2023-08-01T10:18:51;1.98;;;1.88;;
19946;SDS011;10135;50.702;7.276;2023-08-01T10:20:54;3.05;;;1.90;;
19946;SDS011;10135;50.702;7.276;2023-08-01T10:22:56;7.32;;;2.10;;
19946;SDS011;10135;50.702;7.276;2023-08-01T10:24:58;2.17;;;1.88;;
19946;SDS011;10135;50.702;7.276;2023-08-01T10:27:18;1.90;;;1.80;;
19946;SDS011;10135;50.702;7.276;2023-08-01T10:29:20;2.35;;;2.15;;
19946;SDS011;10135;50.702;7.276;2023-08-01T10:31:20;5.93;;;2.28;;
19946;SDS011;10135;50.702;7.276;2023-08-01T10:33:22;3.53;;;1.90;;
19946;SDS011;10135;50.702;7.276;2023-08-01T10:35:34;3.25;;;2.00;;
19946;SDS011;10135;50.702;7.276;2023-08-01T10:37:40;3.03;;;1.80;;
19946;SDS011;10135;50.702;7.276;2023-08-01T10:39:56;2.17;;;2.00;;
19946;SDS011;10135;50.702;7.276;2023-08-01T10:41:59;2.25;;;1.95;;
19946;SDS011;10135;50.702;7.276;2023-08-01T10:46:14;1.92;;;1.83;;
19946;SDS011;10135;50.702;7.276;2023-08-01T10:48:15;3.70;;;2.13;;
19946;SDS011;10135;50.702;7.276;2023-08-01T10:50:16;2.08;;;1.95;;
19946;SDS011;10135;50.702;7.276;2023-08-01T10:52:19;1.83;;;1.73;;
19946;SDS011;10135;50.702;7.276;2023-08-01T10:54:27;1.92;;;1.83;;
19946;SDS011;10135;50.702;7.276;2023-08-01T10:56:28;3.50;;;1.90;;
19946;SDS011;10135;50.702;7.276;2023-08-01T10:58:31;1.75;;;1.65;;
19946;SDS011;10135;50.702;7.276;2023-08-01T11:00:31;2.10;;;1.90;;
19946;SDS011;10135;50.702;7.276;2023-08-01T11:02:32;1.63;;;1.52;;
19946;SDS011;10135;50.702;7.276;2023-08-01T11:04:33;2.83;;;1.92;;
19946;SDS011;10135;50.702;7.276;2023-08-01T11:06:42;1.60;;;1.50;;
19946;SDS011;10135;50.702;7.276;2023-08-01T11:08:47;1.73;;;1.63;;
19946;SDS011;10135;50.702;7.276;2023-08-01T11:10:49;1.92;;;1.70;;
19946;SDS011;10135;50.702;7.276;2023-08-01T11:12:50;1.77;;;1.67;;
19946;SDS011;10135;50.702;7.276;2023-08-01T11:14:51;5.22;;;2.20;;
19946;SDS011;10135;50.702;7.276;2023-08-01T11:16:53;1.95;;;1.80;;
19946;SDS011;10135;50.702;7.276;2023-08-01T11:18:55;1.63;;;1.52;;
19946;SDS011;10135;50.702;7.276;2023-08-01T11:20:56;4.60;;;1.90;;
19946;SDS011;10135;50.702;7.276;2023-08-01T11:22:58;2.13;;;1.70;;
19946;SDS011;10135;50.702;7.276;2023-08-01T11:25:01;1.73;;;1.63;;
19946;SDS011;10135;50.702;7.276;2023-08-01T11:27:02;1.80;;;1.70;;
19946;SDS011;10135;50.702;7.276;2023-08-01T11:29:03;1.75;;;1.70;;
19946;SDS011;10135;50.702;7.276;2023-08-01T11:31:11;3.55;;;1.70;;
19946;SDS011;10135;50.702;7.276;2023-08-01T11:33:13;2.63;;;1.70;;
19946;SDS011;10135;50.702;7.276;2023-08-01T11:35:18;1.70;;;1.60;;
19946;SDS011;10135;50.702;7.276;2023-08-01T11:37:19;1.73;;;1.63;;
19946;SDS011;10135;50.702;7.276;2023-08-01T11:39:20;2.67;;;1.60;;
19946;SDS011;10135;50.702;7.276;2023-08-01T11:41:22;1.92;;;1.75;;
19946;SDS011;10135;50.702;7.276;2023-08-01T11:43:24;1.80;;;1.70;;
19946;SDS011;10135;50.702;7.276;2023-08-01T11:45:25;1.90;;;1.80;;
19946;SDS011;10135;50.702;7.276;2023-08-01T11:47:26;2.90;;;1.73;;
19946;SDS011;10135;50.702;7.276;2023-08-01T11:49:27;1.90;;;1.80;;
19946;SDS011;10135;50.702;7.276;2023-08-01T11:51:28;1.60;;;1.50;;
19946;SDS011;10135;50.702;7.276;2023-08-01T11:53:29;2.35;;;1.63;;
19946;SDS011;10135;50.702;7.276;2023-08-01T11:55:32;2.30;;;1.83;;
19946;SDS011;10135;50.702;7.276;2023-08-01T11:57:36;1.67;;;1.58;;
19946;SDS011;10135;50.702;7.276;2023-08-01T11:59:45;2.90;;;1.83;;
19946;SDS011;10135;50.702;7.276;2023-08-01T12:01:48;1.80;;;1.70;;
19946;SDS011;10135;50.702;7.276;2023-08-01T12:03:51;2.35;;;1.70;;
19946;SDS011;10135;50.702;7.276;2023-08-01T12:06:04;1.67;;;1.60;;
19946;SDS011;10135;50.702;7.276;2023-08-01T12:08:08;1.77;;;1.65;;
19946;SDS011;10135;50.702;7.276;2023-08-01T12:10:14;6.15;;;1.85;;
19946;SDS011;10135;50.702;7.276;2023-08-01T12:12:15;4.15;;;1.70;;
19946;SDS011;10135;50.702;7.276;2023-08-01T12:14:16;4.75;;;1.85;;
19946;SDS011;10135;50.702;7.276;2023-08-01T12:16:16;2.25;;;1.95;;
19946;SDS011;10135;50.702;7.276;2023-08-01T12:18:20;1.70;;;1.60;;
19946;SDS011;10135;50.702;7.276;2023-08-01T12:20:23;1.90;;;1.77;;
19946;SDS011;10135;50.702;7.276;2023-08-01T12:22:24;2.30;;;1.75;;
19946;SDS011;10135;50.702;7.276;2023-08-01T12:24:25;2.10;;;1.65;;
19946;SDS011;10135;50.702;7.276;2023-08-01T12:26:25;1.77;;;1.67;;
19946;SDS011;10135;50.702;7.276;2023-08-01T12:28:26;1.70;;;1.63;;
19946;SDS011;10135;50.702;7.276;2023-08-01T12:30:27;2.20;;;1.60;;
19946;SDS011;10135;50.702;7.276;2023-08-01T12:32:27;1.98;;;1.60;;
19946;SDS011;10135;50.702;7.276;2023-08-01T12:34:28;1.70;;;1.38;;
19946;SDS011;10135;50.702;7.276;2023-08-01T12:36:29;1.35;;;1.33;;
19946;SDS011;10135;50.702;7.276;2023-08-01T12:38:30;1.60;;;1.50;;
19946;SDS011;10135;50.702;7.276;2023-08-01T12:40:30;2.38;;;1.83;;
19946;SDS011;10135;50.702;7.276;2023-08-01T12:42:31;1.85;;;1.50;;
19946;SDS011;10135;50.702;7.276;2023-08-01T12:44:31;1.60;;;1.50;;
19946;SDS011;10135;50.702;7.276;2023-08-01T12:46:32;1.27;;;1.17;;
19946;SDS011;10135;50.702;7.276;2023-08-01T12:48:33;1.50;;;1.40;;
19946;SDS011;10135;50.702;7.276;2023-08-01T12:50:33;1.40;;;1.27;;
19946;SDS011;10135;50.702;7.276;2023-08-01T12:52:34;1.40;;;1.30;;
19946;SDS011;10135;50.702;7.276;2023-08-01T12:54:35;1.52;;;1.30;;
19946;SDS011;10135;50.702;7.276;2023-08-01T12:56:35;1.25;;;1.25;;
19946;SDS011;10135;50.702;7.276;2023-08-01T12:58:37;1.52;;;1.27;;
19946;SDS011;10135;50.702;7.276;2023-08-01T13:00:38;1.65;;;1.45;;
19946;SDS011;10135;50.702;7.276;2023-08-01T13:02:41;1.08;;;1.08;;
19946;SDS011;10135;50.702;7.276;2023-08-01T13:04:41;1.50;;;1.40;;
19946;SDS011;10135;50.702;7.276;2023-08-01T13:06:43;1.30;;;1.30;;
19946;SDS011;10135;50.702;7.276;2023-08-01T13:08:44;1.60;;;1.33;;
19946;SDS011;10135;50.702;7.276;2023-08-01T13:10:45;1.10;;;1.00;;
19946;SDS011;10135;50.702;7.276;2023-08-01T13:12:46;1.58;;;1.30;;
19946;SDS011;10135;50.702;7.276;2023-08-01T13:14:47;1.30;;;1.27;;
19946;SDS011;10135;50.702;7.276;2023-08-01T13:16:47;1.40;;;1.30;;
19946;SDS011;10135;50.702;7.276;2023-08-01T13:18:48;1.40;;;1.30;;
19946;SDS011;10135;50.702;7.276;2023-08-01T13:20:49;1.30;;;1.20;;
19946;SDS011;10135;50.702;7.276;2023-08-01T13:22:50;1.27;;;1.20;;
19946;SDS011;10135;50.702;7.276;2023-08-01T13:24:51;2.08;;;1.02;;
19946;SDS011;10135;50.702;7.276;2023-08-01T13:26:52;1.00;;;1.00;;
19946;SDS011;10135;50.702;7.276;2023-08-01T13:28:52;1.13;;;1.00;;
19946;SDS011;10135;50.702;7.276;2023-08-01T13:30:53;1.48;;;0.85;;
19946;SDS011;10135;50.702;7.276;2023-08-01T13:32:54;1.00;;;1.00;;
19946;SDS011;10135;50.702;7.276;2023-08-01T13:34:54;0.82;;;0.82;;
19946;SDS011;10135;50.702;7.276;2023-08-01T13:36:55;0.90;;;0.90;;
19946;SDS011;10135;50.702;7.276;2023-08-01T13:38:56;1.00;;;0.90;;
19946;SDS011;10135;50.702;7.276;2023-08-01T13:41:00;1.02;;;0.93;;
19946;SDS011;10135;50.702;7.276;2023-08-01T13:43:01;0.90;;;0.90;;
19946;SDS011;10135;50.702;7.276;2023-08-01T13:45:02;4.20;;;1.25;;
19946;SDS011;10135;50.702;7.276;2023-08-01T13:47:03;1.05;;;1.05;;
19946;SDS011;10135;50.702;7.276;2023-08-01T13:49:04;0.95;;;0.95;;
19946;SDS011;10135;50.702;7.276;2023-08-01T13:51:05;0.90;;;0.90;;
19946;SDS011;10135;50.702;7.276;2023-08-01T13:53:05;2.58;;;1.35;;
19946;SDS011;10135;50.702;7.276;2023-08-01T13:55:10;1.20;;;0.95;;
19946;SDS011;10135;50.702;7.276;2023-08-01T13:57:11;1.67;;;0.90;;
19946;SDS011;10135;50.702;7.276;2023-08-01T13:59:11;1.17;;;1.10;;
19946;SDS011;10135;50.702;7.276;2023-08-01T14:01:12;0.90;;;0.90;;
19946;SDS011;10135;50.702;7.276;2023-08-01T14:03:13;2.13;;;1.00;;
19946;SDS011;10135;50.702;7.276;2023-08-01T14:05:13;1.08;;;0.98;;
19946;SDS011;10135;50.702;7.276;2023-08-01T14:07:15;1.00;;;0.98;;
19946;SDS011;10135;50.702;7.276;2023-08-01T14:09:15;1.17;;;1.00;;
19946;SDS011;10135;50.702;7.276;2023-08-01T14:11:16;1.00;;;1.00;;
19946;SDS011;10135;50.702;7.276;2023-08-01T14:13:17;1.20;;;1.10;;
19946;SDS011;10135;50.702;7.276;2023-08-01T14:15:18;1.40;;;0.88;;
19946;SDS011;10135;50.702;7.276;2023-08-01T14:17:19;0.80;;;0.80;;
19946;SDS011;10135;50.702;7.276;2023-08-01T14:19:19;1.30;;;1.20;;
19946;SDS011;10135;50.702;7.276;2023-08-01T14:21:20;1.40;;;1.05;;
19946;SDS011;10135;50.702;7.276;2023-08-01T14:23:21;1.63;;;1.30;;
19946;SDS011;10135;50.702;7.276;2023-08-01T14:25:22;0.93;;;0.90;;
19946;SDS011;10135;50.702;7.276;2023-08-01T14:27:23;1.20;;;1.10;;
19946;SDS011;10135;50.702;7.276;2023-08-01T14:29:23;1.42;;;1.10;;
19946;SDS011;10135;50.702;7.276;2023-08-01T14:31:25;2.55;;;1.30;;
19946;SDS011;10135;50.702;7.276;2023-08-01T14:33:26;1.35;;;1.10;;
19946;SDS011;10135;50.702;7.276;2023-08-01T14:35:27;1.27;;;1.27;;
19946;SDS011;10135;50.702;7.276;2023-08-01T14:37:28;1.67;;;1.20;;
19946;SDS011;10135;50.702;7.276;2023-08-01T14:39:29;1.65;;;1.23;;
19946;SDS011;10135;50.702;7.276;2023-08-01T14:41:30;1.45;;;1.20;;
19946;SDS011;10135;50.702;7.276;2023-08-01T14:43:31;1.17;;;1.10;;
19946;SDS011;10135;50.702;7.276;2023-08-01T14:45:31;2.53;;;1.30;;
19946;SDS011;10135;50.702;7.276;2023-08-01T14:47:33;1.63;;;1.20;;
19946;SDS011;10135;50.702;7.276;2023-08-01T14:49:34;1.50;;;1.40;;
19946;SDS011;10135;50.702;7.276;2023-08-01T14:51:35;1.95;;;1.20;;
19946;SDS011;10135;50.702;7.276;2023-08-01T14:53:35;1.48;;;1.38;;
19946;SDS011;10135;50.702;7.276;2023-08-01T14:55:36;2.78;;;1.40;;
19946;SDS011;10135;50.702;7.276;2023-08-01T14:57:37;1.77;;;1.52;;
19946;SDS011;10135;50.702;7.276;2023-08-01T14:59:38;1.98;;;1.52;;
19946;SDS011;10135;50.702;7.276;2023-08-01T15:01:38;1.20;;;1.17;;
19946;SDS011;10135;50.702;7.276;2023-08-01T15:03:39;1.40;;;1.25;;
19946;SDS011;10135;50.702;7.276;2023-08-01T15:05:40;1.27;;;1.17;;
19946;SDS011;10135;50.702;7.276;2023-08-01T15:07:40;1.58;;;1.27;;
19946;SDS011;10135;50.702;7.276;2023-08-01T15:09:42;1.23;;;1.23;;
19946;SDS011;10135;50.702;7.276;2023-08-01T15:11:43;1.10;;;1.10;;
19946;SDS011;10135;50.702;7.276;2023-08-01T15:13:44;1.75;;;1.25;;
19946;SDS011;10135;50.702;7.276;2023-08-01T15:15:44;1.42;;;1.33;;
19946;SDS011;10135;50.702;7.276;2023-08-01T15:17:45;2.50;;;1.30;;
19946;SDS011;10135;50.702;7.276;2023-08-01T15:19:46;1.20;;;1.17;;
19946;SDS011;10135;50.702;7.276;2023-08-01T15:21:47;1.83;;;1.50;;
19946;SDS011;10135;50.702;7.276;2023-08-01T15:23:47;1.10;;;1.10;;
19946;SDS011;10135;50.702;7.276;2023-08-01T15:25:55;1.20;;;1.20;;
19946;SDS011;10135;50.702;7.276;2023-08-01T15:27:58;1.50;;;1.40;;
19946;SDS011;10135;50.702;7.276;2023-08-01T15:29:59;1.13;;;1.10;;
19946;SDS011;10135;50.702;7.276;2023-08-01T15:32:00;1.52;;;1.30;;
19946;SDS011;10135;50.702;7.276;2023-08-01T15:34:00;1.23;;;1.13;;
19946;SDS011;10135;50.702;7.276;2023-08-01T15:36:02;1.85;;;1.63;;
19946;SDS011;10135;50.702;7.276;2023-08-01T15:38:06;1.20;;;1.10;;
19946;SDS011;10135;50.702;7.276;2023-08-01T15:40:07;1.30;;;1.20;;
19946;SDS011;10135;50.702;7.276;2023-08-01T15:42:08;1.33;;;1.33;;
19946;SDS011;10135;50.702;7.276;2023-08-01T15:44:08;1.55;;;1.40;;
19946;SDS011;10135;50.702;7.276;2023-08-01T15:46:09;1.15;;;0.95;;
19946;SDS011;10135;50.702;7.276;2023-08-01T15:48:11;1.70;;;1.23;;
19946;SDS011;10135;50.702;7.276;2023-08-01T15:50:11;1.83;;;1.45;;
19946;SDS011;10135;50.702;7.276;2023-08-01T15:52:12;2.40;;;1.30;;
19946;SDS011;10135;50.702;7.276;2023-08-01T15:54:13;1.60;;;1.33;;
19946;SDS011;10135;50.702;7.276;2023-08-01T15:56:14;4.13;;;1.63;;
19946;SDS011;10135;50.702;7.276;2023-08-01T15:58:14;2.22;;;1.45;;
19946;SDS011;10135;50.702;7.276;2023-08-01T16:00:15;2.13;;;1.50;;
19946;SDS011;10135;50.702;7.276;2023-08-01T16:02:16;1.30;;;1.30;;
19946;SDS011;10135;50.702;7.276;2023-08-01T16:04:17;2.75;;;1.48;;
19946;SDS011;10135;50.702;7.276;2023-08-01T16:06:17;1.30;;;1.20;;
19946;SDS011;10135;50.702;7.276;2023-08-01T16:08:19;1.45;;;1.30;;
19946;SDS011;10135;50.702;7.276;2023-08-01T16:10:20;1.50;;;1.33;;
19946;SDS011;10135;50.702;7.276;2023-08-01T16:12:20;1.58;;;1.35;;
19946;SDS011;10135;50.702;7.276;2023-08-01T16:14:21;1.50;;;1.40;;
19946;SDS011;10135;50.702;7.276;2023-08-01T16:16:22;1.80;;;1.30;;
19946;SDS011;10135;50.702;7.276;2023-08-01T16:18:22;1.50;;;1.30;;
19946;SDS011;10135;50.702;7.276;2023-08-01T16:20:23;1.30;;;1.20;;
19946;SDS011;10135;50.702;7.276;2023-08-01T16:22:24;1.95;;;1.40;;
19946;SDS011;10135;50.702;7.276;2023-08-01T16:24:24;1.48;;;1.35;;
19946;SDS011;10135;50.702;7.276;2023-08-01T16:26:25;1.40;;;1.17;;
19946;SDS011;10135;50.702;7.276;2023-08-01T16:28:26;1.00;;;1.00;;
19946;SDS011;10135;50.702;7.276;2023-08-01T16:30:27;1.02;;;1.02;;
19946;SDS011;10135;50.702;7.276;2023-08-01T16:32:28;1.95;;;1.20;;
19946;SDS011;10135;50.702;7.276;2023-08-01T16:34:29;1.30;;;1.20;;
19946;SDS011;10135;50.702;7.276;2023-08-01T16:36:30;1.38;;;1.20;;
19946;SDS011;10135;50.702;7.276;2023-08-01T16:38:31;1.65;;;1.55;;
19946;SDS011;10135;50.702;7.276;2023-08-01T16:40:31;1.27;;;1.20;;
19946;SDS011;10135;50.702;7.276;2023-08-01T16:42:32;2.22;;;1.42;;
19946;SDS011;10135;50.702;7.276;2023-08-01T16:44:33;1.38;;;1.27;;
19946;SDS011;10135;50.702;7.276;2023-08-01T16:46:35;1.50;;;1.10;;
19946;SDS011;10135;50.702;7.276;2023-08-01T16:48:35;1.17;;;1.13;;
19946;SDS011;10135;50.702;7.276;2023-08-01T16:50:36;2.05;;;1.30;;
19946;SDS011;10135;50.702;7.276;2023-08-01T16:52:37;1.10;;;1.10;;
19946;SDS011;10135;50.702;7.276;2023-08-01T16:54:37;2.03;;;1.20;;
19946;SDS011;10135;50.702;7.276;2023-08-01T16:56:38;1.65;;;1.55;;
19946;SDS011;10135;50.702;7.276;2023-08-01T16:58:39;1.17;;;1.17;;
19946;SDS011;10135;50.702;7.276;2023-08-01T17:00:39;1.30;;;1.20;;
19946;SDS011;10135;50.702;7.276;2023-08-01T17:02:40;1.85;;;1.10;;
19946;SDS011;10135;50.702;7.276;2023-08-01T17:04:41;1.60;;;1.50;;
19946;SDS011;10135;50.702;7.276;2023-08-01T17:06:43;2.58;;;1.33;;
19946;SDS011;10135;50.702;7.276;2023-08-01T17:08:45;2.13;;;1.35;;
19946;SDS011;10135;50.702;7.276;2023-08-01T17:10:45;2.05;;;1.42;;
19946;SDS011;10135;50.702;7.276;2023-08-01T17:12:46;1.30;;;1.20;;
19946;SDS011;10135;50.702;7.276;2023-08-01T17:17:39;1.20;;;1.20;;
19946;SDS011;10135;50.702;7.276;2023-08-01T17:19:42;1.13;;;1.13;;